createdAt,value
2018-10-21T00:00:22.066Z,7.80
2018-10-21T00:05:25.506Z,12.23
2018-10-21T00:10:29.755Z,7.33
2018-10-21T00:15:33.202Z,14.77
2018-10-21T00:20:36.505Z,21.27
2018-10-21T00:25:40.138Z,8.33
2018-10-21T00:30:43.708Z,9.37
2018-10-21T00:35:47.234Z,8.93
2018-10-21T00:40:51.070Z,7.73
2018-10-21T00:45:54.517Z,8.70
2018-10-21T00:50:58.136Z,8.33
2018-10-21T00:56:01.994Z,5.30
2018-10-21T01:01:05.662Z,6.60
2018-10-21T01:06:09.333Z,6.27
2018-10-21T01:11:13.007Z,19.17
2018-10-21T01:16:20.362Z,8.83
2018-10-21T01:21:24.066Z,21.63
2018-10-21T01:26:28.775Z,13.40
2018-10-21T01:31:32.252Z,9.23
2018-10-21T01:36:35.673Z,9.80
2018-10-21T01:41:39.537Z,26.73
2018-10-21T01:46:43.381Z,11.63
2018-10-21T01:51:47.955Z,16.30
2018-10-21T01:56:51.549Z,11.40
2018-10-21T02:01:54.916Z,7.87
2018-10-21T02:06:58.305Z,8.50
2018-10-21T02:12:01.931Z,17.77
2018-10-21T02:17:06.273Z,18.87
2018-10-21T02:22:10.190Z,10.13
2018-10-21T02:27:14.197Z,11.20
2018-10-21T02:32:22.434Z,13.87
2018-10-21T02:37:26.146Z,32.60
2018-10-21T02:42:30.867Z,12.90
2018-10-21T02:47:34.521Z,8.10
2018-10-21T02:52:38.306Z,4.10
2018-10-21T02:57:42.038Z,8.23
2018-10-21T03:02:45.429Z,11.70
2018-10-21T03:07:49.149Z,22.90
2018-10-21T03:12:52.993Z,11.33
2018-10-21T03:17:56.472Z,5.20
2018-10-21T03:23:05.168Z,11.10
2018-10-21T03:28:09.030Z,22.87
2018-10-21T03:33:13.009Z,9.20
2018-10-21T03:38:18.613Z,7.23
2018-10-21T03:43:22.440Z,6.87
2018-10-21T03:48:25.817Z,8.23
2018-10-21T03:53:33.668Z,7.93
2018-10-21T03:58:37.561Z,4.17
2018-10-21T04:03:41.116Z,7.13
2018-10-21T04:08:44.886Z,11.40
2018-10-21T04:13:48.436Z,14.73
2018-10-21T04:18:52.170Z,12.37
2018-10-21T04:23:56.341Z,13.90
2018-10-21T04:29:05.503Z,13.43
2018-10-21T04:34:09.053Z,10.53
2018-10-21T04:39:22.384Z,17.53
2018-10-21T04:44:26.460Z,10.53
2018-10-21T04:49:29.978Z,4.77
2018-10-21T04:54:35.818Z,6.67
2018-10-21T04:59:40.102Z,9.70
2018-10-21T05:04:43.630Z,6.30
2018-10-21T05:09:47.222Z,10.93
2018-10-21T05:14:50.972Z,10.63
2018-10-21T05:19:54.428Z,16.60
2018-10-21T05:24:57.778Z,14.70
2018-10-21T05:30:01.339Z,13.90
2018-10-21T05:35:20.395Z,13.20
2018-10-21T05:40:23.938Z,8.30
2018-10-21T05:45:27.539Z,12.93
2018-10-21T05:50:30.846Z,13.03
2018-10-21T05:55:34.369Z,18.00
2018-10-21T06:00:37.901Z,13.23
2018-10-21T06:05:48.701Z,22.13
2018-10-21T06:10:52.277Z,13.13
2018-10-21T06:15:56.063Z,14.53
2018-10-21T06:21:02.057Z,14.63
2018-10-21T06:26:05.691Z,10.27
2018-10-21T06:31:09.439Z,11.93
2018-10-21T06:36:12.809Z,12.93
2018-10-21T06:41:16.252Z,14.33
2018-10-21T06:46:19.590Z,22.33
2018-10-21T06:51:23.180Z,13.43
2018-10-21T06:56:26.674Z,13.73
2018-10-21T07:01:30.783Z,21.83
2018-10-21T07:06:34.162Z,17.90
2018-10-21T07:11:38.837Z,18.20
2018-10-21T07:16:42.451Z,12.73
2018-10-21T07:21:45.950Z,17.70
2018-10-21T07:26:49.540Z,17.50
2018-10-21T07:32:24.386Z,13.47
2018-10-21T07:37:28.241Z,15.50
2018-10-21T07:42:31.516Z,17.43
2018-10-21T07:47:35.584Z,26.13
2018-10-21T07:52:39.826Z,20.37
2018-10-21T07:57:43.141Z,27.17
2018-10-21T08:02:47.433Z,24.27
2018-10-21T08:08:01.726Z,31.30
2018-10-21T08:13:06.412Z,27.37
2018-10-21T08:18:11.009Z,23.10
2018-10-21T08:23:15.253Z,33.93
2018-10-21T08:28:18.704Z,22.47
2018-10-21T08:33:26.453Z,32.03
2018-10-21T08:38:30.348Z,39.03
2018-10-21T08:43:34.556Z,39.17
2018-10-21T08:48:37.880Z,59.17
2018-10-21T08:53:42.083Z,32.87
2018-10-21T08:58:45.484Z,38.13
2018-10-21T09:03:48.919Z,50.37
2018-10-21T09:08:56.907Z,38.33
2018-10-21T09:14:01.705Z,41.77
2018-10-21T09:19:08.165Z,45.60
2018-10-21T09:24:11.868Z,30.03
2018-10-21T09:29:15.164Z,46.90
2018-10-21T09:34:18.567Z,71.37
2018-10-21T09:39:21.838Z,43.33
2018-10-21T09:44:25.128Z,47.77
2018-10-21T09:49:28.975Z,78.63
2018-10-21T09:54:33.093Z,85.13
2018-10-21T09:59:36.431Z,93.67
2018-10-21T10:04:39.802Z,56.07
2018-10-21T10:09:43.153Z,86.67
2018-10-21T10:14:46.504Z,49.43
2018-10-21T10:19:51.614Z,60.13
2018-10-21T10:24:55.048Z,124.10
2018-10-21T10:29:58.816Z,116.10
2018-10-21T10:35:05.129Z,56.13
2018-10-21T10:40:16.841Z,78.67
2018-10-21T10:45:21.389Z,127.37
2018-10-21T10:50:24.754Z,100.40
2018-10-21T10:55:33.595Z,88.53
2018-10-21T11:00:37.201Z,100.50
2018-10-21T11:05:42.781Z,131.73
2018-10-21T11:10:50.650Z,96.83
2018-10-21T11:15:54.686Z,150.20
2018-10-21T11:20:58.190Z,150.63
2018-10-21T11:26:01.938Z,102.70
2018-10-21T11:31:05.856Z,136.43
2018-10-21T11:36:11.021Z,139.00
2018-10-21T11:41:15.148Z,136.17
2018-10-21T11:46:21.085Z,119.53
2018-10-21T11:51:24.932Z,123.47
2018-10-21T11:56:28.593Z,123.97
2018-10-21T12:01:31.989Z,110.93
2018-10-21T12:06:36.206Z,115.90
2018-10-21T12:11:40.039Z,121.17
2018-10-21T12:16:43.577Z,119.53
2018-10-21T12:21:46.970Z,132.10
2018-10-21T12:26:50.336Z,102.53
2018-10-21T12:31:56.285Z,113.13
2018-10-21T12:37:00.720Z,103.53
2018-10-21T12:42:05.001Z,98.30
2018-10-21T12:47:09.390Z,101.07
2018-10-21T12:52:12.865Z,108.07
2018-10-21T12:57:21.645Z,116.40
2018-10-21T13:02:29.695Z,102.23
2018-10-21T13:07:37.470Z,100.33
2018-10-21T13:12:43.588Z,103.20
2018-10-21T13:17:47.361Z,114.03
2018-10-21T13:22:50.742Z,100.37
2018-10-21T13:27:54.074Z,107.60
2018-10-21T13:32:57.405Z,103.00
2018-10-21T13:38:00.889Z,110.13
2018-10-21T13:43:05.235Z,92.53
2018-10-21T13:48:21.580Z,93.33
2018-10-21T13:53:30.161Z,115.17
2018-10-21T13:58:34.036Z,121.20
2018-10-21T14:03:37.309Z,109.73
2018-10-21T14:08:40.943Z,129.13
2018-10-21T14:13:44.321Z,138.27
2018-10-21T14:18:48.179Z,139.20
2018-10-21T14:23:51.520Z,139.27
2018-10-21T14:28:56.810Z,103.37
2018-10-21T14:34:00.669Z,139.97
2018-10-21T14:39:07.551Z,122.77
2018-10-21T14:44:10.878Z,146.87
2018-10-21T14:49:14.509Z,144.97
2018-10-21T14:55:20.570Z,133.13
2018-10-21T15:00:23.952Z,123.67
2018-10-21T15:05:27.270Z,137.00
2018-10-21T15:10:31.011Z,120.97
2018-10-21T15:15:34.396Z,135.33
2018-10-21T15:20:38.109Z,140.93
2018-10-21T15:25:41.804Z,145.83
2018-10-21T15:30:45.674Z,145.20
2018-10-21T15:35:48.999Z,132.53
2018-10-21T15:40:53.059Z,146.53
2018-10-21T15:45:57.075Z,123.93
2018-10-21T15:51:00.561Z,143.57
2018-10-21T15:56:04.761Z,148.13
2018-10-21T16:01:26.411Z,127.27
2018-10-21T16:06:34.275Z,129.20
2018-10-21T16:11:38.409Z,147.87
2018-10-21T16:16:45.466Z,129.27
2018-10-21T16:21:52.116Z,121.53
2018-10-21T16:26:55.702Z,132.47
2018-10-21T16:31:59.284Z,150.40
2018-10-21T16:37:02.897Z,117.00
2018-10-21T16:42:06.728Z,120.00
2018-10-21T16:47:10.277Z,135.70
2018-10-21T16:52:25.552Z,116.40
2018-10-21T16:57:29.557Z,124.80
2018-10-21T17:02:36.867Z,110.43
2018-10-21T17:07:43.738Z,102.47
2018-10-21T17:12:47.293Z,122.07
2018-10-21T17:17:50.666Z,110.50
2018-10-21T17:22:54.007Z,108.40
2018-10-21T17:27:58.094Z,96.83
2018-10-21T17:33:01.517Z,103.50
2018-10-21T17:38:05.566Z,111.17
2018-10-21T17:43:09.604Z,95.77
2018-10-21T17:48:16.735Z,103.70
2018-10-21T17:53:20.526Z,94.50
2018-10-21T17:58:23.992Z,112.33
2018-10-21T18:03:29.279Z,93.70
2018-10-21T18:08:34.124Z,94.70
2018-10-21T18:13:38.561Z,110.47
2018-10-21T18:18:42.031Z,93.80
2018-10-21T18:23:45.462Z,96.60
2018-10-21T18:28:48.991Z,92.10
2018-10-21T18:33:52.510Z,106.20
2018-10-21T18:38:56.316Z,102.53
2018-10-21T18:44:00.643Z,91.90
2018-10-21T18:49:04.588Z,96.67
2018-10-21T18:54:08.153Z,101.27
2018-10-21T18:59:11.724Z,98.47
2018-10-21T19:04:15.257Z,95.23
2018-10-21T19:09:18.602Z,88.87
2018-10-21T19:14:24.392Z,95.43
2018-10-21T19:19:28.132Z,94.37
2018-10-21T19:24:31.575Z,80.20
2018-10-21T19:29:36.005Z,92.77
2018-10-21T19:34:44.276Z,92.80
2018-10-21T19:39:48.188Z,88.93
2018-10-21T19:44:52.276Z,84.27
2018-10-21T19:49:58.556Z,98.47
2018-10-21T19:55:02.969Z,99.33
2018-10-21T20:00:08.565Z,94.80
2018-10-21T20:05:11.884Z,104.13
2018-10-21T20:10:15.766Z,107.47
2018-10-21T20:15:19.442Z,105.93
2018-10-21T20:20:24.465Z,70.50
2018-10-21T20:25:36.788Z,115.83
2018-10-21T20:30:40.755Z,103.47
2018-10-21T20:35:44.123Z,118.47
2018-10-21T20:40:47.482Z,118.60
2018-10-21T20:45:51.469Z,141.13
2018-10-21T20:50:54.767Z,163.20
2018-10-21T20:55:58.795Z,152.90
2018-10-21T21:01:02.170Z,146.57
2018-10-21T21:06:05.563Z,111.03
2018-10-21T21:11:09.465Z,152.27
2018-10-21T21:16:12.992Z,137.80
2018-10-21T21:21:16.404Z,124.63
2018-10-21T21:26:20.240Z,156.80
2018-10-21T21:31:28.020Z,143.57
2018-10-21T21:36:31.682Z,152.00
2018-10-21T21:41:35.060Z,161.03
2018-10-21T21:46:39.307Z,66.40
2018-10-21T21:51:42.626Z,120.37
2018-10-21T21:56:46.858Z,102.13
2018-10-21T22:01:50.721Z,220.27
2018-10-21T22:06:54.241Z,230.33
2018-10-21T22:11:58.267Z,259.60
2018-10-21T22:17:02.225Z,302.60
2018-10-21T22:22:06.093Z,278.30
2018-10-21T22:27:09.609Z,251.23
2018-10-21T22:32:13.779Z,306.07
2018-10-21T22:37:17.170Z,341.60
2018-10-21T22:42:20.916Z,328.80
2018-10-21T22:47:24.267Z,309.20
2018-10-21T22:52:27.787Z,363.67
2018-10-21T22:57:31.194Z,304.97
2018-10-21T23:02:35.121Z,323.53
2018-10-21T23:07:39.507Z,317.27
2018-10-21T23:12:43.249Z,325.33
2018-10-21T23:17:47.320Z,294.77
2018-10-21T23:22:50.901Z,260.20
2018-10-21T23:27:54.249Z,229.47
2018-10-21T23:32:58.108Z,203.17
2018-10-21T23:38:02.217Z,182.20
2018-10-21T23:43:05.870Z,58.53
2018-10-21T23:48:09.900Z,32.03
2018-10-21T23:53:13.558Z,9.67
2018-10-21T23:58:17.954Z,11.00
